createdAt,value
2022-11-18T00:01:22.461Z,15.70
2022-11-18T00:03:52.255Z,18.77
2022-11-18T00:06:24.154Z,15.68
2022-11-18T00:08:55.183Z,17.60
2022-11-18T00:11:44.541Z,14.63
2022-11-18T00:14:23.198Z,14.18
2022-11-18T00:16:54.024Z,18.77
2022-11-18T00:19:25.255Z,15.40
2022-11-18T00:21:53.684Z,19.02
2022-11-18T00:24:21.708Z,16.92
2022-11-18T00:26:49.473Z,16.80
2022-11-18T00:29:17.591Z,15.25
2022-11-18T00:31:45.200Z,18.33
2022-11-18T00:34:16.859Z,15.35
2022-11-18T00:36:45.339Z,16.05
2022-11-18T00:39:16.605Z,18.65
2022-11-18T00:42:03.790Z,15.93
2022-11-18T00:44:31.061Z,16.67
2022-11-18T00:46:58.601Z,18.10
2022-11-18T00:49:25.962Z,18.65
2022-11-18T00:51:53.122Z,19.77
2022-11-18T00:54:21.203Z,21.30
2022-11-18T00:56:48.365Z,23.48
2022-11-18T00:59:16.152Z,21.73
2022-11-18T01:01:43.733Z,23.48
2022-11-18T01:04:10.959Z,21.15
2022-11-18T01:06:38.131Z,20.50
2022-11-18T01:09:05.366Z,20.30
2022-11-18T01:11:51.118Z,23.50
2022-11-18T01:14:18.369Z,20.58
2022-11-18T01:16:50.977Z,21.25
2022-11-18T01:19:19.695Z,24.95
2022-11-18T01:21:47.345Z,27.95
2022-11-18T01:24:15.035Z,22.10
2022-11-18T01:26:42.731Z,25.75
2022-11-18T01:29:10.285Z,24.23
2022-11-18T01:31:50.202Z,29.50
2022-11-18T01:34:29.124Z,25.35
2022-11-18T01:36:57.965Z,27.20
2022-11-18T01:39:25.560Z,27.13
2022-11-18T01:41:52.853Z,27.70
2022-11-18T01:45:09.430Z,28.15
2022-11-18T01:47:49.852Z,28.55
2022-11-18T01:50:21.514Z,29.02
2022-11-18T01:52:52.299Z,30.70
2022-11-18T01:55:26.089Z,34.97
2022-11-18T01:58:23.151Z,30.27
2022-11-18T02:00:50.473Z,31.90
2022-11-18T02:03:18.867Z,30.30
2022-11-18T02:05:50.199Z,30.52
2022-11-18T02:08:19.070Z,30.75
2022-11-18T02:10:46.491Z,31.15
2022-11-18T02:13:15.000Z,32.60
2022-11-18T02:16:07.134Z,34.78
2022-11-18T02:19:01.767Z,35.58
2022-11-18T02:22:11.721Z,34.25
2022-11-18T02:25:06.109Z,33.47
2022-11-18T02:28:11.902Z,32.78
2022-11-18T02:30:57.943Z,33.65
2022-11-18T02:33:38.359Z,40.78
2022-11-18T02:36:21.763Z,37.78
2022-11-18T02:38:57.676Z,33.10
2022-11-18T02:41:33.998Z,38.40
2022-11-18T02:44:11.703Z,35.78
2022-11-18T02:46:41.012Z,39.17
2022-11-18T02:49:28.824Z,40.22
2022-11-18T02:51:57.988Z,36.38
2022-11-18T02:54:28.781Z,41.15
2022-11-18T02:56:57.099Z,37.53
2022-11-18T02:59:24.318Z,43.95
2022-11-18T03:01:51.596Z,46.20
2022-11-18T03:04:21.275Z,44.15
2022-11-18T03:07:13.080Z,47.88
2022-11-18T03:09:46.314Z,42.58
2022-11-18T03:12:46.570Z,45.17
2022-11-18T03:15:32.847Z,52.08
2022-11-18T03:18:20.312Z,47.13
2022-11-18T03:21:11.641Z,48.45
2022-11-18T03:23:48.577Z,50.58
2022-11-18T03:26:25.460Z,49.85
2022-11-18T03:29:18.971Z,52.33
2022-11-18T03:32:12.769Z,51.10
2022-11-18T03:34:47.269Z,51.67
2022-11-18T03:37:19.619Z,53.88
2022-11-18T03:39:59.158Z,54.75
2022-11-18T03:42:39.253Z,59.95
2022-11-18T03:45:16.798Z,56.13
2022-11-18T03:47:58.185Z,55.25
2022-11-18T03:50:33.417Z,52.58
2022-11-18T03:53:03.097Z,52.47
2022-11-18T03:55:39.640Z,57.38
2022-11-18T03:58:13.674Z,53.95
2022-11-18T04:00:47.571Z,56.47
2022-11-18T04:03:15.210Z,56.53
2022-11-18T04:05:44.226Z,55.72
2022-11-18T04:08:23.475Z,55.58
2022-11-18T04:11:36.931Z,55.65
2022-11-18T04:14:09.838Z,56.13
2022-11-18T04:16:45.164Z,58.50
2022-11-18T04:19:12.381Z,53.78
2022-11-18T04:21:39.589Z,50.72
2022-11-18T04:24:07.156Z,54.08
2022-11-18T04:26:34.340Z,53.40
2022-11-18T04:29:01.522Z,51.03
2022-11-18T04:31:28.724Z,55.70
2022-11-18T04:33:55.861Z,53.80
2022-11-18T04:36:23.315Z,56.10
2022-11-18T04:38:50.522Z,50.83
2022-11-18T04:41:17.658Z,52.17
2022-11-18T04:43:44.780Z,51.75
2022-11-18T04:46:11.908Z,54.63
2022-11-18T04:48:39.037Z,49.35
2022-11-18T04:51:06.421Z,54.90
2022-11-18T04:53:33.598Z,56.22
2022-11-18T04:56:07.791Z,50.72
2022-11-18T04:58:34.975Z,47.17
2022-11-18T05:01:02.172Z,49.35
2022-11-18T05:03:29.454Z,47.85
2022-11-18T05:05:56.611Z,50.55
2022-11-18T05:08:23.748Z,47.50
2022-11-18T05:10:50.888Z,52.17
2022-11-18T05:13:18.054Z,48.05
2022-11-18T05:15:45.184Z,49.53
2022-11-18T05:18:12.349Z,48.03
2022-11-18T05:20:41.692Z,49.10
2022-11-18T05:23:09.053Z,49.20
2022-11-18T05:25:36.197Z,47.40
2022-11-18T05:28:03.455Z,47.13
2022-11-18T05:30:30.619Z,46.10
2022-11-18T05:32:57.844Z,48.55
2022-11-18T05:35:25.013Z,47.00
2022-11-18T05:37:52.136Z,46.65
2022-11-18T05:40:19.343Z,48.13
2022-11-18T05:43:05.266Z,51.22
2022-11-18T05:45:32.420Z,50.53
2022-11-18T05:48:04.278Z,49.88
2022-11-18T05:50:33.819Z,51.77
2022-11-18T05:53:01.909Z,50.10
2022-11-18T05:55:40.728Z,49.97
2022-11-18T05:58:07.905Z,51.72
2022-11-18T06:00:36.032Z,54.20
2022-11-18T06:03:13.463Z,49.03
2022-11-18T06:05:40.903Z,47.20
2022-11-18T06:08:11.709Z,51.17
2022-11-18T06:10:43.079Z,53.58
2022-11-18T06:13:19.612Z,54.50
2022-11-18T06:15:47.136Z,54.33
2022-11-18T06:18:25.635Z,58.08
2022-11-18T06:20:59.910Z,57.53
2022-11-18T06:23:30.434Z,55.75
2022-11-18T06:25:57.639Z,59.22
2022-11-18T06:28:28.650Z,55.60
2022-11-18T06:30:55.852Z,58.17
2022-11-18T06:33:22.995Z,56.97
2022-11-18T06:35:50.147Z,56.60
2022-11-18T06:38:17.282Z,57.58
2022-11-18T06:40:44.703Z,61.45
2022-11-18T06:43:31.145Z,60.22
2022-11-18T06:46:22.033Z,59.92
2022-11-18T06:48:49.450Z,58.42
2022-11-18T06:51:17.086Z,58.22
2022-11-18T06:53:44.938Z,56.30
2022-11-18T06:56:16.112Z,59.38
2022-11-18T06:58:43.747Z,64.22
2022-11-18T07:01:17.738Z,59.63
2022-11-18T07:03:46.649Z,58.28
2022-11-18T07:06:18.732Z,60.28
2022-11-18T07:08:46.745Z,61.63
2022-11-18T07:11:19.054Z,62.67
2022-11-18T07:13:47.580Z,62.05
2022-11-18T07:16:18.874Z,60.83
2022-11-18T07:18:48.312Z,60.20
2022-11-18T07:21:28.257Z,58.50
2022-11-18T07:23:57.001Z,57.40
2022-11-18T07:26:24.298Z,55.63
2022-11-18T07:28:51.519Z,62.97
2022-11-18T07:31:21.009Z,59.15
2022-11-18T07:33:49.202Z,57.20
2022-11-18T07:36:21.160Z,60.63
2022-11-18T07:38:49.097Z,60.50
2022-11-18T07:41:23.378Z,59.22
2022-11-18T07:43:56.148Z,55.67
2022-11-18T07:46:33.430Z,58.53
2022-11-18T07:49:05.641Z,63.03
2022-11-18T07:51:36.663Z,58.30
2022-11-18T07:54:12.676Z,59.20
2022-11-18T07:56:40.497Z,56.72
2022-11-18T07:59:08.025Z,58.80
2022-11-18T08:01:35.807Z,56.15
2022-11-18T08:04:09.571Z,53.92
2022-11-18T08:06:38.206Z,54.72
2022-11-18T08:09:07.611Z,55.00
2022-11-18T08:11:35.420Z,52.25
2022-11-18T08:14:02.830Z,56.85
2022-11-18T08:16:30.153Z,59.33
2022-11-18T08:18:59.134Z,58.35
2022-11-18T08:21:26.326Z,56.97
2022-11-18T08:23:58.146Z,56.80
2022-11-18T08:26:27.055Z,56.08
2022-11-18T08:28:54.532Z,54.70
2022-11-18T08:31:25.950Z,60.22
2022-11-18T08:33:58.031Z,55.38
2022-11-18T08:36:29.291Z,50.43
2022-11-18T08:38:58.060Z,51.10
2022-11-18T08:41:35.730Z,54.50
2022-11-18T08:44:05.478Z,53.08
2022-11-18T08:46:33.095Z,55.25
2022-11-18T08:49:01.344Z,53.92
2022-11-18T08:51:28.677Z,50.20
2022-11-18T08:53:56.296Z,52.78
2022-11-18T08:56:25.489Z,58.28
2022-11-18T08:58:53.455Z,53.60
2022-11-18T09:01:20.814Z,51.35
2022-11-18T09:03:48.903Z,56.78
2022-11-18T09:06:24.204Z,57.10
2022-11-18T09:08:52.098Z,59.03
2022-11-18T09:11:24.861Z,58.55
2022-11-18T09:16:45.509Z,58.30
2022-11-18T09:22:01.756Z,57.55
2022-11-18T09:24:28.982Z,56.20
2022-11-18T09:26:56.149Z,57.10
2022-11-18T09:29:26.062Z,54.28
2022-11-18T09:31:54.711Z,61.40
2022-11-18T09:34:23.474Z,58.00
2022-11-18T09:36:51.285Z,56.78
2022-11-18T09:39:18.836Z,53.67
2022-11-18T09:42:07.195Z,56.05
2022-11-18T09:44:41.219Z,54.65
2022-11-18T09:47:33.427Z,57.58
2022-11-18T09:50:26.608Z,56.28
2022-11-18T09:53:15.767Z,55.05
2022-11-18T09:55:43.448Z,53.88
2022-11-18T09:58:46.996Z,53.30
2022-11-18T10:01:20.507Z,52.67
2022-11-18T10:03:47.803Z,51.08
2022-11-18T10:06:26.580Z,49.88
2022-11-18T10:09:35.365Z,50.35
2022-11-18T10:12:39.797Z,52.38
2022-11-18T10:15:38.264Z,54.47
2022-11-18T10:18:37.908Z,51.83
2022-11-18T10:21:51.182Z,52.42
2022-11-18T10:26:57.039Z,47.58
2022-11-18T10:29:25.257Z,47.20
2022-11-18T10:32:04.749Z,43.63
2022-11-18T10:34:35.562Z,44.78
2022-11-18T10:37:06.537Z,44.25
2022-11-18T10:39:34.106Z,39.20
2022-11-18T10:42:07.280Z,37.35
2022-11-18T10:44:41.068Z,39.15
2022-11-18T10:47:23.117Z,39.45
2022-11-18T10:49:52.394Z,39.78
2022-11-18T10:52:20.603Z,38.78
2022-11-18T10:55:13.971Z,43.92
2022-11-18T10:57:45.807Z,42.45
2022-11-18T11:00:49.369Z,44.75
2022-11-18T11:04:02.976Z,46.17
2022-11-18T11:06:38.552Z,42.97
2022-11-18T11:09:08.791Z,48.90
2022-11-18T11:11:55.732Z,43.47
2022-11-18T11:14:55.664Z,45.10
2022-11-18T11:17:39.045Z,42.03
2022-11-18T11:20:23.924Z,37.75
2022-11-18T11:22:51.132Z,35.78
2022-11-18T11:28:49.270Z,35.92
2022-11-18T11:31:45.452Z,35.58
2022-11-18T11:34:40.512Z,36.65
2022-11-18T11:37:46.779Z,39.60
2022-11-18T11:40:32.399Z,35.85
2022-11-18T11:43:22.553Z,35.95
2022-11-18T11:46:17.724Z,34.78
2022-11-18T11:48:58.468Z,33.67
2022-11-18T11:51:40.225Z,36.13
2022-11-18T11:54:49.877Z,34.05
2022-11-18T11:57:55.284Z,36.28
2022-11-18T12:00:22.501Z,36.35
2022-11-18T12:03:24.149Z,37.03
2022-11-18T12:05:51.441Z,34.42
2022-11-18T12:08:25.536Z,37.00
2022-11-18T12:11:29.145Z,37.20
2022-11-18T12:14:28.047Z,41.08
2022-11-18T12:17:13.220Z,37.95
2022-11-18T12:19:40.680Z,39.22
2022-11-18T12:22:07.832Z,37.15
2022-11-18T12:24:38.950Z,40.03
2022-11-18T12:27:39.808Z,44.20
2022-11-18T12:30:19.169Z,42.55
2022-11-18T12:32:46.881Z,45.65
2022-11-18T12:35:14.433Z,45.53
2022-11-18T12:37:53.654Z,43.05
2022-11-18T12:40:38.924Z,45.33
2022-11-18T12:43:50.742Z,46.70
2022-11-18T12:46:26.858Z,48.38
2022-11-18T12:48:54.032Z,55.08
2022-11-18T12:51:21.137Z,55.33
2022-11-18T12:53:50.049Z,50.92
2022-11-18T12:56:17.615Z,52.72
2022-11-18T12:58:58.753Z,52.78
2022-11-18T13:01:35.996Z,52.42
2022-11-18T13:04:22.075Z,52.85
2022-11-18T13:06:54.162Z,58.65
2022-11-18T13:09:27.001Z,40.37
2022-11-18T13:11:58.672Z,53.85
2022-11-18T13:15:04.119Z,54.35
2022-11-18T13:17:54.774Z,56.55
2022-11-18T13:20:31.199Z,56.10
2022-11-18T13:23:21.031Z,56.78
2022-11-18T13:25:50.709Z,54.92
2022-11-18T13:28:35.015Z,53.65
2022-11-18T13:31:33.645Z,55.63
2022-11-18T13:34:04.239Z,53.20
2022-11-18T13:36:33.180Z,52.05
2022-11-18T13:39:07.144Z,53.00
2022-11-18T13:41:35.518Z,50.78
2022-11-18T13:44:34.379Z,51.30
2022-11-18T13:47:40.392Z,47.45
2022-11-18T13:50:10.805Z,50.25
2022-11-18T13:52:54.073Z,48.33
2022-11-18T13:58:28.982Z,45.55
2022-11-18T14:01:06.422Z,42.05
2022-11-18T14:03:46.101Z,47.50
2022-11-18T14:06:34.651Z,40.58
2022-11-18T14:09:24.184Z,38.97
2022-11-18T14:12:00.328Z,39.17
2022-11-18T14:14:32.833Z,38.58
2022-11-18T14:17:18.615Z,36.83
2022-11-18T14:19:49.057Z,35.15
2022-11-18T14:22:26.775Z,37.05
2022-11-18T14:25:19.070Z,43.63
2022-11-18T14:27:49.807Z,41.15
2022-11-18T14:30:39.703Z,40.85
2022-11-18T14:33:15.561Z,39.10
2022-11-18T14:35:59.722Z,40.38
2022-11-18T14:39:19.306Z,38.33
2022-11-18T14:41:47.385Z,35.92
2022-11-18T14:44:15.435Z,39.67
2022-11-18T14:46:53.327Z,38.67
2022-11-18T14:49:24.323Z,40.22
2022-11-18T14:51:54.990Z,38.28
2022-11-18T14:54:28.033Z,38.92
2022-11-18T14:57:05.201Z,42.50
2022-11-18T14:59:32.553Z,40.10
2022-11-18T15:02:00.106Z,45.22
2022-11-18T15:04:27.640Z,42.55
2022-11-18T15:06:55.099Z,42.58
2022-11-18T15:09:22.783Z,42.63
2022-11-18T15:11:50.001Z,43.85
2022-11-18T15:14:17.496Z,45.40
2022-11-18T15:16:45.036Z,41.75
2022-11-18T15:19:16.013Z,41.65
2022-11-18T15:21:45.247Z,48.55
2022-11-18T15:24:13.874Z,39.53
2022-11-18T15:26:44.922Z,42.28
2022-11-18T15:29:24.736Z,37.25
2022-11-18T15:31:52.405Z,35.63
2022-11-18T15:34:20.431Z,38.47
2022-11-18T15:36:49.058Z,39.83
2022-11-18T15:39:16.234Z,35.63
2022-11-18T15:41:44.585Z,45.33
2022-11-18T15:44:12.686Z,42.75
2022-11-18T15:46:40.382Z,44.83
2022-11-18T15:49:13.095Z,35.85
2022-11-18T15:51:41.076Z,36.08
2022-11-18T15:54:08.351Z,37.05
2022-11-18T15:56:35.926Z,38.15
2022-11-18T15:59:14.544Z,35.90
2022-11-18T16:01:46.009Z,33.92
2022-11-18T16:04:17.029Z,41.67
2022-11-18T16:06:45.687Z,37.28
2022-11-18T16:09:14.789Z,32.55
2022-11-18T16:12:01.312Z,34.58
2022-11-18T16:14:28.697Z,35.13
2022-11-18T16:16:57.028Z,28.77
2022-11-18T16:19:26.793Z,36.05
2022-11-18T16:21:56.979Z,33.15
2022-11-18T16:24:27.638Z,30.80
2022-11-18T16:26:55.629Z,32.33
2022-11-18T16:29:24.192Z,31.45
2022-11-18T16:31:52.732Z,32.47
2022-11-18T16:34:24.503Z,32.65
2022-11-18T16:36:55.239Z,31.52
2022-11-18T16:39:26.538Z,29.70
2022-11-18T16:42:07.405Z,29.50
2022-11-18T16:44:36.375Z,28.10
2022-11-18T16:47:08.966Z,31.98
2022-11-18T16:49:39.808Z,31.92
2022-11-18T16:52:07.293Z,31.10
2022-11-18T16:54:35.585Z,29.50
2022-11-18T16:57:04.492Z,29.45
2022-11-18T16:59:31.743Z,28.48
2022-11-18T17:02:00.302Z,30.27
2022-11-18T17:04:29.744Z,29.02
2022-11-18T17:06:59.755Z,28.65
2022-11-18T17:09:27.856Z,27.13
2022-11-18T17:11:56.095Z,30.25
2022-11-18T17:14:30.755Z,28.33
2022-11-18T17:17:11.758Z,30.00
2022-11-18T17:19:39.783Z,24.70
2022-11-18T17:22:26.221Z,28.40
2022-11-18T17:25:06.364Z,29.73
2022-11-18T17:27:38.623Z,28.52
2022-11-18T17:30:07.044Z,28.42
2022-11-18T17:32:34.251Z,27.27
2022-11-18T17:35:02.354Z,25.45
2022-11-18T17:37:31.627Z,28.80
2022-11-18T17:39:59.191Z,29.48
2022-11-18T17:42:26.773Z,25.88
2022-11-18T17:44:54.771Z,26.92
2022-11-18T17:47:32.859Z,28.38
2022-11-18T17:50:22.380Z,26.48
2022-11-18T17:52:57.709Z,26.67
2022-11-18T17:55:29.007Z,27.45
2022-11-18T17:57:56.237Z,27.17
2022-11-18T18:00:23.497Z,24.95
2022-11-18T18:02:50.747Z,23.92
2022-11-18T18:05:17.897Z,24.17
2022-11-18T18:11:52.251Z,25.77
2022-11-18T18:14:43.291Z,26.20
2022-11-18T18:17:10.900Z,23.38
2022-11-18T18:19:38.017Z,23.50
2022-11-18T18:22:05.189Z,26.23
2022-11-18T18:24:32.319Z,25.58
2022-11-18T18:27:00.573Z,21.67
2022-11-18T18:29:27.835Z,29.88
2022-11-18T18:31:55.007Z,22.45
2022-11-18T18:34:22.349Z,21.80
2022-11-18T18:36:49.870Z,24.60
2022-11-18T18:39:17.254Z,23.92
2022-11-18T18:41:44.550Z,20.23
2022-11-18T18:44:17.024Z,21.30
2022-11-18T18:46:45.968Z,21.25
2022-11-18T18:49:20.421Z,23.52
2022-11-18T18:51:50.861Z,20.48
2022-11-18T18:54:20.798Z,20.10
2022-11-18T18:56:48.271Z,23.20
2022-11-18T18:59:15.441Z,25.30
2022-11-18T19:01:42.808Z,25.88
2022-11-18T19:04:13.848Z,25.38
2022-11-18T19:07:01.118Z,20.90
2022-11-18T19:09:28.933Z,27.20
2022-11-18T19:12:14.970Z,23.33
2022-11-18T19:14:42.216Z,25.80
2022-11-18T19:17:12.155Z,21.95
2022-11-18T19:20:00.296Z,23.75
2022-11-18T19:22:32.849Z,22.67
2022-11-18T19:25:01.407Z,25.85
2022-11-18T19:27:29.782Z,23.38
2022-11-18T19:29:57.190Z,21.73
2022-11-18T19:32:24.445Z,23.17
2022-11-18T19:34:51.647Z,21.85
2022-11-18T19:37:18.855Z,22.95
2022-11-18T19:39:46.038Z,22.67
2022-11-18T19:42:13.409Z,25.30
2022-11-18T19:44:40.627Z,23.33
2022-11-18T19:47:07.775Z,24.23
2022-11-18T19:49:35.087Z,25.75
2022-11-18T19:52:02.572Z,26.38
2022-11-18T19:54:29.878Z,27.75
2022-11-18T19:56:57.423Z,25.58
2022-11-18T19:59:24.782Z,28.35
2022-11-18T20:01:52.007Z,32.20
2022-11-18T20:04:19.238Z,28.95
2022-11-18T20:06:46.604Z,31.75
2022-11-18T20:09:14.334Z,32.45
2022-11-18T20:11:44.166Z,31.98
2022-11-18T20:14:13.007Z,36.30
2022-11-18T20:16:40.662Z,31.75
2022-11-18T20:19:13.228Z,34.83
2022-11-18T20:21:43.318Z,36.35
2022-11-18T20:24:16.782Z,35.65
2022-11-18T20:26:45.061Z,26.65
2022-11-18T20:29:12.711Z,25.40
2022-11-18T20:31:40.377Z,23.83
2022-11-18T20:34:07.569Z,27.50
2022-11-18T20:36:36.736Z,31.17
2022-11-18T20:39:08.349Z,30.15
2022-11-18T20:41:36.373Z,22.77
2022-11-18T20:44:04.310Z,26.73
2022-11-18T20:46:33.168Z,23.92
2022-11-18T20:49:00.590Z,24.67
2022-11-18T20:51:29.259Z,22.33
2022-11-18T20:53:57.738Z,23.05
2022-11-18T20:56:27.817Z,27.77
2022-11-18T20:58:57.817Z,25.60
2022-11-18T21:01:29.270Z,21.77
2022-11-18T21:04:00.160Z,22.35
2022-11-18T21:06:30.814Z,23.45
2022-11-18T21:09:06.347Z,23.65
2022-11-18T21:11:35.872Z,24.17
2022-11-18T21:14:24.419Z,22.13
2022-11-18T21:16:55.387Z,20.48
2022-11-18T21:19:23.558Z,21.90
2022-11-18T21:21:52.618Z,19.85
2022-11-18T21:24:27.208Z,23.83
2022-11-18T21:26:55.661Z,22.73
2022-11-18T21:29:27.307Z,23.08
2022-11-18T21:31:54.963Z,24.13
2022-11-18T21:34:22.911Z,35.13
2022-11-18T21:36:54.629Z,41.20
2022-11-18T21:39:24.843Z,49.38
2022-11-18T21:41:56.260Z,50.70
2022-11-18T21:44:27.637Z,34.28
2022-11-18T21:46:55.493Z,27.92
2022-11-18T21:49:23.045Z,28.92
2022-11-18T21:51:50.473Z,24.00
2022-11-18T21:54:18.358Z,25.27
2022-11-18T21:56:45.865Z,22.55
2022-11-18T21:59:13.126Z,22.73
2022-11-18T22:01:40.377Z,22.30
2022-11-18T22:04:07.537Z,21.98
2022-11-18T22:06:35.075Z,25.45
2022-11-18T22:09:04.040Z,24.10
2022-11-18T22:11:31.197Z,22.35
2022-11-18T22:13:58.604Z,23.92
2022-11-18T22:16:27.329Z,23.35
2022-11-18T22:19:01.553Z,23.90
2022-11-18T22:21:32.324Z,26.20
2022-11-18T22:24:00.982Z,21.58
2022-11-18T22:26:29.158Z,26.88
2022-11-18T22:28:58.562Z,24.35
2022-11-18T22:31:28.390Z,25.67
2022-11-18T22:33:56.560Z,26.75
2022-11-18T22:36:26.591Z,29.77
2022-11-18T22:38:54.978Z,26.98
2022-11-18T22:41:44.302Z,26.45
2022-11-18T22:44:14.980Z,25.40
2022-11-18T22:46:44.762Z,25.73
2022-11-18T22:49:12.793Z,25.25
2022-11-18T22:51:40.622Z,27.77
2022-11-18T22:56:56.556Z,25.33
2022-11-18T22:59:24.556Z,22.02
2022-11-18T23:01:52.794Z,22.48
2022-11-18T23:04:20.113Z,21.90
2022-11-18T23:06:49.362Z,21.00
2022-11-18T23:09:17.010Z,21.48
2022-11-18T23:12:03.309Z,21.95
2022-11-18T23:14:30.498Z,23.17
2022-11-18T23:16:57.752Z,24.02
2022-11-18T23:19:24.939Z,26.02
2022-11-18T23:21:52.179Z,29.27
2022-11-18T23:24:19.749Z,26.00
2022-11-18T23:26:47.318Z,27.48
2022-11-18T23:29:16.084Z,26.83
2022-11-18T23:31:45.459Z,24.60
2022-11-18T23:34:15.015Z,23.08
2022-11-18T23:36:43.359Z,25.25
2022-11-18T23:39:10.919Z,22.48
2022-11-18T23:41:39.419Z,22.73
2022-11-18T23:44:06.682Z,23.05
2022-11-18T23:46:34.447Z,20.42
2022-11-18T23:49:01.863Z,22.08
2022-11-18T23:51:29.045Z,21.60
2022-11-18T23:53:57.783Z,22.88
2022-11-18T23:56:27.289Z,22.10
2022-11-18T23:58:56.547Z,20.83
